createdAt,value
2018-07-05T00:00:01.173Z,11.93
2018-07-05T00:02:54.412Z,11.60
2018-07-05T00:05:47.878Z,10.50
2018-07-05T00:08:41.782Z,11.10
2018-07-05T00:11:35.152Z,11.18
2018-07-05T00:14:28.400Z,11.40
2018-07-05T00:17:21.702Z,10.68
2018-07-05T00:20:14.846Z,11.10
2018-07-05T00:23:08.143Z,10.30
2018-07-05T00:26:01.502Z,11.20
2018-07-05T00:28:54.996Z,10.95
2018-07-05T00:31:48.291Z,10.58
2018-07-05T00:34:41.859Z,10.98
2018-07-05T00:37:35.506Z,11.40
2018-07-05T00:40:28.743Z,10.70
2018-07-05T00:43:21.754Z,10.65
2018-07-05T00:46:14.889Z,10.48
2018-07-05T00:49:08.124Z,9.93
2018-07-05T00:52:01.215Z,10.28
2018-07-05T00:54:54.315Z,11.15
2018-07-05T00:57:47.480Z,10.43
2018-07-05T01:00:40.666Z,10.10
2018-07-05T01:03:33.864Z,10.82
2018-07-05T01:06:27.120Z,9.90
2018-07-05T01:09:20.372Z,10.65
2018-07-05T01:12:13.604Z,10.30
2018-07-05T01:15:07.124Z,10.93
2018-07-05T01:18:00.308Z,9.80
2018-07-05T01:20:53.736Z,9.70
2018-07-05T01:23:46.994Z,10.10
2018-07-05T01:26:40.101Z,10.68
2018-07-05T01:29:33.225Z,8.25
2018-07-05T01:32:26.558Z,9.78
2018-07-05T01:35:19.973Z,10.40
2018-07-05T01:38:13.098Z,11.08
2018-07-05T01:41:06.384Z,9.53
2018-07-05T01:43:59.607Z,11.10
2018-07-05T01:46:53.020Z,10.30
2018-07-05T01:49:46.382Z,9.93
2018-07-05T01:52:40.387Z,10.32
2018-07-05T01:55:33.546Z,9.85
2018-07-05T01:58:26.743Z,9.58
2018-07-05T02:01:20.025Z,9.53
2018-07-05T02:04:13.338Z,9.40
2018-07-05T02:07:06.895Z,9.25
2018-07-05T02:10:00.368Z,10.30
2018-07-05T02:12:53.622Z,11.03
2018-07-05T02:15:46.916Z,9.75
2018-07-05T02:18:40.202Z,9.80
2018-07-05T02:21:33.503Z,11.08
2018-07-05T02:24:26.744Z,10.00
2018-07-05T02:27:20.159Z,11.00
2018-07-05T02:30:13.530Z,9.48
2018-07-05T02:33:06.880Z,10.13
2018-07-05T02:36:00.099Z,10.25
2018-07-05T02:38:58.690Z,10.63
2018-07-05T02:41:52.788Z,11.08
2018-07-05T02:44:46.132Z,10.93
2018-07-05T02:47:39.539Z,11.93
2018-07-05T02:50:32.869Z,10.80
2018-07-05T02:53:26.154Z,11.15
2018-07-05T02:56:19.337Z,10.43
2018-07-05T02:59:12.557Z,10.85
2018-07-05T03:02:05.986Z,11.50
2018-07-05T03:04:59.414Z,12.35
2018-07-05T03:07:52.949Z,11.15
2018-07-05T03:10:46.173Z,10.28
2018-07-05T03:13:39.409Z,9.95
2018-07-05T03:16:32.660Z,11.60
2018-07-05T03:19:25.639Z,10.40
2018-07-05T03:22:12.912Z,10.55
2018-07-05T03:25:06.098Z,11.43
2018-07-05T03:27:59.702Z,10.75
2018-07-05T03:34:06.627Z,10.10
2018-07-05T03:36:59.982Z,11.68
2018-07-05T03:39:53.523Z,10.93
2018-07-05T03:42:50.463Z,10.90
2018-07-05T03:45:44.580Z,12.13
2018-07-05T03:48:37.883Z,11.65
2018-07-05T03:51:31.315Z,11.30
2018-07-05T03:54:24.705Z,10.38
2018-07-05T03:57:17.997Z,11.85
2018-07-05T04:00:11.415Z,12.03
2018-07-05T04:03:04.553Z,11.15
2018-07-05T04:05:57.861Z,11.88
2018-07-05T04:08:51.228Z,11.33
2018-07-05T04:11:44.597Z,10.20
2018-07-05T04:14:37.836Z,11.95
2018-07-05T04:17:31.205Z,13.65
2018-07-05T04:20:24.500Z,15.50
2018-07-05T04:23:17.800Z,12.50
2018-07-05T04:26:10.986Z,12.80
2018-07-05T04:29:04.414Z,12.55
2018-07-05T04:31:57.732Z,13.62
2018-07-05T04:34:51.141Z,13.72
2018-07-05T04:37:44.222Z,14.53
2018-07-05T04:40:37.480Z,14.90
2018-07-05T04:43:30.510Z,14.83
2018-07-05T04:46:23.646Z,17.32
2018-07-05T04:49:16.859Z,17.73
2018-07-05T04:52:10.026Z,16.75
2018-07-05T04:55:03.165Z,19.40
2018-07-05T04:57:56.344Z,16.85
2018-07-05T05:00:50.072Z,16.60
2018-07-05T05:03:45.120Z,16.75
2018-07-05T05:06:38.847Z,14.28
2018-07-05T05:09:34.253Z,15.32
2018-07-05T05:12:29.034Z,13.98
2018-07-05T05:15:23.427Z,13.05
2018-07-05T05:18:17.111Z,11.65
2018-07-05T05:21:11.583Z,12.07
2018-07-05T05:24:05.127Z,13.25
2018-07-05T05:26:58.558Z,12.03
2018-07-05T05:29:51.732Z,12.05
2018-07-05T05:32:45.124Z,12.68
2018-07-05T05:35:38.449Z,13.93
2018-07-05T05:38:31.678Z,12.60
2018-07-05T05:41:24.958Z,11.70
2018-07-05T05:44:18.110Z,12.75
2018-07-05T05:47:11.184Z,11.85
2018-07-05T05:50:04.311Z,11.00
2018-07-05T05:52:57.652Z,10.13
2018-07-05T05:55:50.975Z,11.10
2018-07-05T05:58:44.278Z,10.82
2018-07-05T06:01:37.391Z,9.85
2018-07-05T06:04:30.625Z,11.48
2018-07-05T06:07:23.877Z,11.43
2018-07-05T06:10:17.126Z,11.80
2018-07-05T06:13:10.146Z,13.30
2018-07-05T06:16:03.380Z,14.50
2018-07-05T06:18:56.834Z,14.53
2018-07-05T06:21:49.997Z,13.65
2018-07-05T06:24:43.350Z,15.60
2018-07-05T06:27:36.524Z,14.10
2018-07-05T06:30:29.779Z,14.63
2018-07-05T06:33:22.727Z,13.90
2018-07-05T06:36:15.886Z,12.50
2018-07-05T06:39:09.155Z,12.60
2018-07-05T06:42:02.278Z,11.93
2018-07-05T06:44:55.344Z,11.40
2018-07-05T06:47:48.565Z,9.95
2018-07-05T06:50:41.783Z,9.10
2018-07-05T06:53:35.881Z,8.33
2018-07-05T06:56:29.156Z,7.28
2018-07-05T06:59:22.524Z,7.50
2018-07-05T07:02:15.963Z,7.05
2018-07-05T07:05:09.212Z,7.17
2018-07-05T07:08:02.375Z,6.80
2018-07-05T07:10:55.434Z,7.87
2018-07-05T07:13:48.582Z,7.22
2018-07-05T07:16:41.868Z,7.20
2018-07-05T07:19:35.093Z,7.17
2018-07-05T07:22:28.623Z,6.83
2018-07-05T07:25:24.974Z,6.72
2018-07-05T07:28:18.015Z,6.20
2018-07-05T07:31:11.553Z,6.20
2018-07-05T07:34:04.743Z,5.60
2018-07-05T07:36:58.090Z,6.35
2018-07-05T07:39:51.241Z,7.65
2018-07-05T07:42:25.993Z,6.30
2018-07-05T07:44:54.449Z,6.40
2018-07-05T07:47:22.920Z,5.85
2018-07-05T07:49:51.400Z,6.20
2018-07-05T07:52:19.896Z,5.80
2018-07-05T07:54:48.648Z,5.30
2018-07-05T07:57:17.062Z,6.17
2018-07-05T07:59:45.539Z,6.15
2018-07-05T08:02:13.996Z,6.60
2018-07-05T08:04:42.437Z,6.42
2018-07-05T08:07:11.057Z,5.80
2018-07-05T08:09:39.575Z,5.37
2018-07-05T08:12:08.079Z,5.33
2018-07-05T08:14:36.507Z,5.00
2018-07-05T08:17:04.989Z,5.08
2018-07-05T08:19:33.464Z,6.00
2018-07-05T08:22:01.970Z,5.50
2018-07-05T08:24:30.435Z,4.62
2018-07-05T08:26:58.912Z,4.67
2018-07-05T08:29:27.377Z,4.50
2018-07-05T08:31:55.806Z,4.37
2018-07-05T08:34:24.328Z,4.45
2018-07-05T08:36:52.749Z,3.92
2018-07-05T08:39:21.214Z,3.47
2018-07-05T08:41:49.669Z,3.27
2018-07-05T08:44:18.157Z,3.50
2018-07-05T08:46:46.651Z,3.40
2018-07-05T08:49:15.071Z,3.15
2018-07-05T08:51:43.531Z,3.45
2018-07-05T08:54:11.975Z,3.25
2018-07-05T08:56:40.430Z,3.08
2018-07-05T08:59:08.931Z,3.05
2018-07-05T09:01:37.406Z,2.85
2018-07-05T09:04:05.921Z,3.52
2018-07-05T09:06:34.384Z,3.00
2018-07-05T09:09:02.916Z,3.45
2018-07-05T09:11:31.396Z,3.08
2018-07-05T09:13:59.865Z,4.40
2018-07-05T09:16:28.285Z,3.50
2018-07-05T09:18:56.777Z,3.50
2018-07-05T09:21:25.216Z,3.58
2018-07-05T09:23:53.715Z,3.37
2018-07-05T09:26:22.229Z,3.25
2018-07-05T09:28:50.696Z,2.77
2018-07-05T09:31:19.203Z,2.98
2018-07-05T09:33:47.653Z,2.60
2018-07-05T09:36:16.108Z,2.98
2018-07-05T09:38:44.574Z,2.70
2018-07-05T09:41:13.106Z,2.92
2018-07-05T09:43:41.597Z,3.15
2018-07-05T09:46:10.496Z,2.60
2018-07-05T09:48:38.939Z,3.35
2018-07-05T09:51:07.989Z,3.12
2018-07-05T09:53:36.440Z,3.40
2018-07-05T09:56:05.025Z,3.17
2018-07-05T09:58:33.560Z,3.83
2018-07-05T10:01:02.030Z,3.45
2018-07-05T10:03:30.565Z,3.42
2018-07-05T10:05:58.946Z,3.40
2018-07-05T10:08:27.479Z,2.92
2018-07-05T10:10:55.927Z,3.20
2018-07-05T10:13:24.586Z,2.75
2018-07-05T10:15:52.883Z,2.98
2018-07-05T10:18:21.314Z,3.27
2018-07-05T10:20:49.810Z,3.08
2018-07-05T10:23:18.274Z,3.35
2018-07-05T10:25:46.817Z,3.37
2018-07-05T10:28:15.299Z,3.35
2018-07-05T10:31:02.261Z,3.40
2018-07-05T10:33:48.774Z,3.80
2018-07-05T10:36:17.290Z,3.92
2018-07-05T10:38:45.733Z,4.40
2018-07-05T10:41:32.683Z,4.37
2018-07-05T10:44:26.051Z,3.67
2018-07-05T10:47:19.423Z,3.90
2018-07-05T10:50:12.754Z,3.42
2018-07-05T10:53:06.597Z,3.42
2018-07-05T10:55:59.878Z,2.50
2018-07-05T10:58:53.170Z,3.42
2018-07-05T11:01:46.552Z,3.95
2018-07-05T11:04:39.776Z,3.00
2018-07-05T11:07:33.070Z,3.55
2018-07-05T11:10:26.277Z,2.95
2018-07-05T11:13:19.320Z,3.95
2018-07-05T11:16:12.810Z,3.70
2018-07-05T11:19:06.161Z,3.60
2018-07-05T11:21:59.242Z,3.10
2018-07-05T11:24:52.437Z,3.30
2018-07-05T11:27:45.514Z,3.70
2018-07-05T11:30:38.774Z,3.15
2018-07-05T11:33:32.601Z,3.33
2018-07-05T11:36:25.715Z,3.40
2018-07-05T11:39:19.151Z,3.27
2018-07-05T11:42:12.377Z,2.95
2018-07-05T11:45:05.553Z,3.05
2018-07-05T11:47:58.780Z,3.60
2018-07-05T11:50:51.961Z,3.15
2018-07-05T11:53:45.299Z,3.10
2018-07-05T11:56:38.299Z,3.50
2018-07-05T11:59:31.607Z,2.90
2018-07-05T12:02:24.823Z,3.45
2018-07-05T12:05:17.837Z,3.25
2018-07-05T12:08:11.095Z,3.60
2018-07-05T12:11:04.499Z,3.80
2018-07-05T12:13:57.938Z,3.17
2018-07-05T12:16:51.007Z,3.37
2018-07-05T12:19:44.301Z,3.42
2018-07-05T12:22:37.500Z,3.00
2018-07-05T12:25:30.734Z,3.30
2018-07-05T12:28:23.951Z,3.95
2018-07-05T12:31:17.105Z,4.10
2018-07-05T12:34:10.489Z,4.22
2018-07-05T12:37:03.590Z,4.30
2018-07-05T12:39:56.778Z,4.35
2018-07-05T12:42:50.155Z,3.80
2018-07-05T12:45:43.493Z,4.75
2018-07-05T12:48:36.752Z,4.28
2018-07-05T12:51:29.858Z,4.92
2018-07-05T12:54:24.479Z,5.50
2018-07-05T12:57:17.449Z,5.40
2018-07-05T13:00:10.837Z,5.28
2018-07-05T13:03:03.882Z,5.83
2018-07-05T13:05:57.007Z,7.58
2018-07-05T13:08:49.966Z,9.40
2018-07-05T13:11:42.900Z,10.25
2018-07-05T13:14:36.025Z,9.70
2018-07-05T13:17:28.945Z,9.55
2018-07-05T13:20:22.032Z,11.10
2018-07-05T13:23:15.141Z,10.30
2018-07-05T13:26:08.579Z,11.60
2018-07-05T13:29:01.893Z,8.65
2018-07-05T13:31:55.198Z,8.43
2018-07-05T13:34:48.301Z,9.23
2018-07-05T13:37:41.620Z,9.95
2018-07-05T13:40:34.901Z,8.80
2018-07-05T13:43:28.207Z,9.93
2018-07-05T13:46:21.436Z,11.05
2018-07-05T13:49:14.598Z,9.65
2018-07-05T13:52:07.822Z,9.70
2018-07-05T13:55:00.916Z,8.88
2018-07-05T13:57:54.259Z,9.63
2018-07-05T14:00:47.666Z,9.95
2018-07-05T14:03:41.021Z,9.95
2018-07-05T14:06:34.281Z,10.20
2018-07-05T14:09:27.623Z,9.58
2018-07-05T14:12:21.009Z,8.75
2018-07-05T14:15:14.238Z,10.72
2018-07-05T14:18:07.596Z,9.40
2018-07-05T14:21:01.155Z,9.05
2018-07-05T14:23:54.324Z,8.28
2018-07-05T14:26:48.701Z,9.28
2018-07-05T14:29:41.986Z,8.70
2018-07-05T14:32:35.360Z,9.45
2018-07-05T14:35:28.605Z,8.15
2018-07-05T14:38:15.991Z,7.50
2018-07-05T14:41:09.500Z,7.03
2018-07-05T14:44:02.729Z,6.47
2018-07-05T14:46:56.337Z,6.40
2018-07-05T14:49:50.351Z,7.03
2018-07-05T14:52:43.765Z,7.08
2018-07-05T14:55:37.358Z,7.72
2018-07-05T14:58:30.512Z,6.47
2018-07-05T15:01:23.919Z,6.50
2018-07-05T15:04:17.325Z,5.80
2018-07-05T15:07:10.545Z,5.75
2018-07-05T15:10:03.874Z,5.80
2018-07-05T15:12:57.189Z,5.30
2018-07-05T15:15:50.533Z,4.42
2018-07-05T15:18:43.653Z,5.70
2018-07-05T15:21:37.911Z,5.97
2018-07-05T15:24:31.098Z,5.60
2018-07-05T15:27:24.251Z,5.28
2018-07-05T15:30:18.127Z,5.40
2018-07-05T15:33:11.482Z,6.50
2018-07-05T15:36:04.770Z,5.15
2018-07-05T15:38:58.338Z,6.40
2018-07-05T15:41:51.562Z,6.35
2018-07-05T15:44:44.830Z,4.90
2018-07-05T15:47:37.876Z,5.45
2018-07-05T15:50:31.152Z,5.33
2018-07-05T15:53:24.403Z,5.90
2018-07-05T15:56:11.704Z,5.10
2018-07-05T15:59:04.805Z,4.67
2018-07-05T16:01:58.167Z,4.92
2018-07-05T16:04:51.170Z,4.72
2018-07-05T16:07:44.574Z,5.15
2018-07-05T16:10:37.725Z,4.28
2018-07-05T16:13:31.016Z,4.65
2018-07-05T16:16:24.255Z,4.75
2018-07-05T16:19:17.555Z,4.10
2018-07-05T16:22:10.529Z,5.83
2018-07-05T16:25:04.029Z,5.15
2018-07-05T16:27:57.181Z,5.45
2018-07-05T16:30:50.584Z,6.00
2018-07-05T16:33:43.734Z,6.35
2018-07-05T16:36:37.401Z,5.80
2018-07-05T16:39:32.597Z,5.80
2018-07-05T16:42:25.643Z,6.80
2018-07-05T16:45:18.767Z,6.67
2018-07-05T16:48:11.935Z,7.05
2018-07-05T16:51:05.152Z,6.72
2018-07-05T16:53:58.471Z,6.40
2018-07-05T16:56:51.810Z,7.03
2018-07-05T16:59:44.961Z,7.70
2018-07-05T17:02:38.149Z,7.05
2018-07-05T17:05:31.446Z,7.28
2018-07-05T17:08:24.446Z,7.08
2018-07-05T17:11:17.620Z,7.35
2018-07-05T17:14:11.379Z,6.85
2018-07-05T17:17:04.763Z,7.75
2018-07-05T17:19:58.442Z,7.62
2018-07-05T17:22:52.387Z,7.58
2018-07-05T17:25:47.580Z,7.95
2018-07-05T17:28:40.646Z,7.95
2018-07-05T17:31:33.928Z,7.03
2018-07-05T17:34:27.174Z,7.67
2018-07-05T17:37:20.308Z,8.10
2018-07-05T17:40:13.531Z,7.17
2018-07-05T17:43:06.750Z,7.75
2018-07-05T17:45:59.857Z,7.70
2018-07-05T17:48:53.233Z,7.92
2018-07-05T17:51:46.937Z,6.00
2018-07-05T17:54:40.142Z,7.72
2018-07-05T17:57:33.279Z,8.83
2018-07-05T18:00:26.333Z,7.72
2018-07-05T18:03:19.531Z,8.35
2018-07-05T18:06:12.784Z,8.30
2018-07-05T18:09:06.257Z,8.35
2018-07-05T18:11:59.779Z,8.00
2018-07-05T18:14:52.981Z,8.13
2018-07-05T18:17:46.346Z,8.05
2018-07-05T18:20:39.641Z,5.78
2018-07-05T18:23:32.991Z,5.20
2018-07-05T18:26:26.358Z,4.12
2018-07-05T18:29:19.347Z,4.58
2018-07-05T18:32:12.534Z,4.70
2018-07-05T18:35:05.749Z,4.78
2018-07-05T18:37:59.218Z,5.10
2018-07-05T18:40:52.364Z,5.30
2018-07-05T18:43:45.595Z,4.60
2018-07-05T18:46:38.987Z,4.80
2018-07-05T18:49:32.448Z,4.92
2018-07-05T18:52:25.732Z,4.83
2018-07-05T18:55:19.118Z,4.85
2018-07-05T18:58:12.618Z,4.80
2018-07-05T19:01:06.110Z,4.55
2018-07-05T19:03:59.349Z,5.50
2018-07-05T19:06:52.632Z,5.30
2018-07-05T19:09:45.998Z,4.83
2018-07-05T19:12:39.065Z,5.47
2018-07-05T19:15:33.041Z,5.37
2018-07-05T19:18:26.453Z,5.08
2018-07-05T19:21:19.885Z,5.50
2018-07-05T19:24:13.269Z,4.95
2018-07-05T19:27:06.495Z,4.97
2018-07-05T19:29:59.877Z,5.37
2018-07-05T19:32:53.119Z,5.75
2018-07-05T19:35:46.165Z,5.45
2018-07-05T19:38:39.295Z,5.42
2018-07-05T19:41:32.610Z,5.20
2018-07-05T19:44:25.983Z,5.08
2018-07-05T19:47:19.047Z,4.37
2018-07-05T19:50:12.435Z,5.05
2018-07-05T19:53:05.597Z,5.17
2018-07-05T19:55:58.984Z,5.58
2018-07-05T19:58:52.217Z,5.45
2018-07-05T20:01:45.660Z,6.42
2018-07-05T20:04:39.043Z,5.50
2018-07-05T20:07:32.254Z,5.85
2018-07-05T20:10:25.715Z,5.67
2018-07-05T20:13:19.058Z,4.87
2018-07-05T20:16:12.204Z,4.87
2018-07-05T20:19:06.316Z,4.90
2018-07-05T20:21:59.651Z,4.72
2018-07-05T20:24:53.012Z,4.25
2018-07-05T20:27:46.303Z,4.53
2018-07-05T20:30:39.507Z,5.15
2018-07-05T20:33:32.842Z,5.17
2018-07-05T20:36:26.128Z,5.40
2018-07-05T20:39:20.050Z,6.03
2018-07-05T20:42:13.259Z,4.80
2018-07-05T20:45:07.836Z,5.22
2018-07-05T20:48:00.850Z,5.35
2018-07-05T20:50:54.285Z,5.50
2018-07-05T20:53:47.611Z,5.08
2018-07-05T20:56:40.949Z,4.72
2018-07-05T20:59:34.076Z,5.10
2018-07-05T21:02:28.359Z,4.62
2018-07-05T21:05:21.671Z,5.10
2018-07-05T21:08:15.336Z,5.30
2018-07-05T21:11:08.600Z,5.60
2018-07-05T21:14:01.769Z,5.33
2018-07-05T21:16:55.046Z,5.70
2018-07-05T21:19:48.220Z,6.08
2018-07-05T21:22:41.542Z,5.12
2018-07-05T21:25:34.752Z,5.80
2018-07-05T21:28:28.074Z,5.65
2018-07-05T21:31:21.485Z,6.15
2018-07-05T21:34:14.705Z,6.72
2018-07-05T21:37:09.652Z,5.30
2018-07-05T21:40:02.981Z,5.37
2018-07-05T21:42:56.192Z,5.67
2018-07-05T21:45:49.472Z,5.83
2018-07-05T21:48:42.717Z,6.45
2018-07-05T21:51:35.923Z,6.28
2018-07-05T21:54:29.188Z,6.25
2018-07-05T21:57:22.475Z,5.62
2018-07-05T22:00:15.651Z,6.28
2018-07-05T22:03:08.738Z,6.97
2018-07-05T22:06:01.994Z,6.05
2018-07-05T22:08:55.409Z,6.40
2018-07-05T22:11:48.599Z,6.28
2018-07-05T22:14:41.821Z,6.53
2018-07-05T22:17:40.152Z,5.75
2018-07-05T22:20:38.688Z,6.22
2018-07-05T22:23:37.532Z,6.17
2018-07-05T22:26:33.568Z,6.12
2018-07-05T22:29:31.783Z,5.30
2018-07-05T22:32:25.221Z,5.92
2018-07-05T22:35:18.404Z,5.50
2018-07-05T22:38:11.473Z,5.78
2018-07-05T22:41:04.833Z,5.30
2018-07-05T22:43:58.253Z,6.42
2018-07-05T22:46:51.610Z,6.37
2018-07-05T22:49:44.933Z,6.35
2018-07-05T22:52:38.033Z,6.10
2018-07-05T22:55:31.096Z,6.17
2018-07-05T22:58:24.097Z,6.60
2018-07-05T23:01:17.232Z,5.90
2018-07-05T23:04:10.444Z,5.92
2018-07-05T23:07:03.615Z,5.42
2018-07-05T23:09:57.407Z,5.05
2018-07-05T23:12:50.979Z,6.45
2018-07-05T23:15:44.254Z,6.12
2018-07-05T23:18:38.013Z,5.58
2018-07-05T23:21:31.346Z,4.42
2018-07-05T23:24:24.568Z,5.60
2018-07-05T23:27:18.757Z,4.95
2018-07-05T23:30:12.133Z,5.28
2018-07-05T23:33:05.421Z,4.92
2018-07-05T23:35:58.804Z,4.80
2018-07-05T23:38:52.216Z,5.42
2018-07-05T23:41:45.505Z,6.75
2018-07-05T23:44:39.147Z,5.60
2018-07-05T23:47:32.523Z,5.83
2018-07-05T23:50:25.863Z,5.85
2018-07-05T23:53:18.956Z,6.05
2018-07-05T23:56:12.219Z,5.42
2018-07-05T23:59:05.609Z,5.75
